Salt Lake City, Utah
Traffic Map
Current Weather Conditions
Salt Lake City, Utah
Scattered Clouds
Scattered Clouds
31°
Feels Like: 31°
Wind Chill: 31° Ceiling: Unl
Heat Index: 31° Visibility: 10mi
Dew Point: Wind: 6mph
Humidity: 24% Direction: 190° (S)
Pressure: 30.07in Gusts: 0mph
Raw Report DataKSLC 231654Z 19005KT 10SM FEW100 FEW160 SCT220 SCT250 31/08 A3007 RMK AO2 SLP116 ACSL DSNT E T03060078
Traffic Incident Summary
Active as of:
Severity:
Category:
InformationThere was an issue retrieving the traffic information for this location. Please try a different location or try again shortly.
Advertisements
Track Severe Weather on mobile